createdAt,value
2023-01-23T00:01:26.967Z,92.42
2023-01-23T00:03:55.506Z,92.31
2023-01-23T00:06:22.616Z,92.31
2023-01-23T00:08:49.374Z,92.31
2023-01-23T00:11:22.214Z,92.25
2023-01-23T00:13:49.348Z,92.88
2023-01-23T00:16:20.672Z,92.97
2023-01-23T00:18:48.213Z,92.47
2023-01-23T00:21:20.623Z,92.95
2023-01-23T00:23:51.974Z,92.53
2023-01-23T00:26:26.029Z,92.53
2023-01-23T00:28:53.875Z,92.50
2023-01-23T00:31:24.753Z,92.16
2023-01-23T00:33:55.249Z,92.36
2023-01-23T00:36:21.904Z,92.21
2023-01-23T00:38:48.482Z,92.73
2023-01-23T00:41:15.107Z,92.14
2023-01-23T00:43:42.343Z,92.12
2023-01-23T00:46:09.050Z,92.58
2023-01-23T00:48:38.515Z,92.09
2023-01-23T00:51:05.765Z,92.18
2023-01-23T00:53:32.304Z,92.41
2023-01-23T00:55:58.857Z,92.40
2023-01-23T00:58:28.426Z,92.07
2023-01-23T01:00:57.332Z,92.47
2023-01-23T01:03:25.383Z,92.06
2023-01-23T01:05:52.357Z,92.26
2023-01-23T01:08:19.259Z,92.35
2023-01-23T01:10:47.986Z,91.72
2023-01-23T01:13:21.338Z,92.50
2023-01-23T01:15:49.726Z,92.41
2023-01-23T01:18:17.475Z,92.49
2023-01-23T01:20:47.266Z,92.76
2023-01-23T01:23:14.374Z,92.21
2023-01-23T01:25:40.979Z,92.61
2023-01-23T01:28:08.100Z,92.37
2023-01-23T01:30:36.842Z,92.70
2023-01-23T01:33:03.958Z,92.36
2023-01-23T01:35:30.589Z,92.28
2023-01-23T01:37:57.251Z,92.78
2023-01-23T01:40:33.417Z,93.25
2023-01-23T01:43:08.807Z,93.46
2023-01-23T01:46:09.414Z,92.99
2023-01-23T01:48:41.038Z,93.16
2023-01-23T01:51:24.747Z,93.30
2023-01-23T01:54:00.499Z,93.27
2023-01-23T01:56:29.399Z,93.57
2023-01-23T01:58:58.326Z,93.30
2023-01-23T02:01:25.621Z,92.91
2023-01-23T02:03:56.533Z,92.99
2023-01-23T02:06:24.167Z,93.02
2023-01-23T02:08:59.448Z,92.95
2023-01-23T02:11:26.014Z,93.03
2023-01-23T02:13:57.059Z,93.42
2023-01-23T02:16:29.637Z,93.06
2023-01-23T02:19:04.568Z,92.90
2023-01-23T02:21:31.255Z,93.44
2023-01-23T02:24:31.931Z,93.29
2023-01-23T02:26:58.613Z,92.97
2023-01-23T02:29:40.646Z,93.24
2023-01-23T02:32:07.394Z,93.39
2023-01-23T02:34:37.453Z,93.10
2023-01-23T02:37:05.309Z,93.17
2023-01-23T02:39:32.960Z,93.34
2023-01-23T02:42:01.248Z,93.52
2023-01-23T02:44:31.925Z,93.76
2023-01-23T02:47:08.016Z,93.36
2023-01-23T02:49:36.901Z,93.19
2023-01-23T02:52:03.618Z,93.55
2023-01-23T02:54:30.225Z,93.17
2023-01-23T02:56:59.238Z,93.78
2023-01-23T02:59:44.482Z,93.56
2023-01-23T03:02:11.344Z,93.25
2023-01-23T03:04:38.009Z,93.53
2023-01-23T03:07:04.575Z,93.64
2023-01-23T03:09:31.084Z,93.77
2023-01-23T03:11:57.792Z,93.16
2023-01-23T03:14:27.273Z,93.30
2023-01-23T03:16:56.347Z,93.16
2023-01-23T03:19:25.528Z,93.30
2023-01-23T03:21:53.454Z,93.06
2023-01-23T03:24:23.611Z,93.01
2023-01-23T03:26:50.943Z,92.87
2023-01-23T03:29:41.288Z,92.96
2023-01-23T03:32:09.956Z,92.73
2023-01-23T03:34:36.628Z,93.02
2023-01-23T03:37:07.924Z,92.93
2023-01-23T03:39:53.584Z,92.87
2023-01-23T03:42:21.157Z,93.13
2023-01-23T03:44:48.214Z,93.79
2023-01-23T03:47:14.917Z,93.74
2023-01-23T03:49:43.787Z,93.89
2023-01-23T03:52:10.385Z,94.20
2023-01-23T03:54:37.182Z,94.27
2023-01-23T03:57:03.790Z,93.62
2023-01-23T03:59:30.515Z,93.51
2023-01-23T04:01:58.177Z,93.36
2023-01-23T04:04:24.802Z,92.96
2023-01-23T04:06:51.483Z,93.19
2023-01-23T04:09:18.221Z,93.07
2023-01-23T04:11:44.811Z,93.87
2023-01-23T04:14:11.381Z,93.59
2023-01-23T04:16:38.005Z,93.57
2023-01-23T04:19:04.806Z,93.50
2023-01-23T04:21:31.436Z,93.18
2023-01-23T04:24:00.292Z,92.80
2023-01-23T04:26:26.983Z,93.09
2023-01-23T04:28:53.523Z,92.87
2023-01-23T04:31:20.281Z,92.86
2023-01-23T04:33:46.981Z,93.45
2023-01-23T04:36:16.092Z,93.55
2023-01-23T04:38:42.701Z,93.66
2023-01-23T04:41:14.873Z,93.25
2023-01-23T04:43:41.460Z,92.94
2023-01-23T04:46:10.335Z,93.33
2023-01-23T04:48:36.979Z,93.17
2023-01-23T04:51:03.726Z,93.68
2023-01-23T04:53:30.398Z,93.38
2023-01-23T04:55:57.033Z,92.80
2023-01-23T04:58:23.746Z,93.05
2023-01-23T05:00:53.849Z,93.29
2023-01-23T05:03:20.636Z,93.57
2023-01-23T05:05:48.561Z,93.55
2023-01-23T05:08:15.170Z,93.41
2023-01-23T05:10:44.201Z,93.36
2023-01-23T05:13:10.769Z,93.13
2023-01-23T05:15:37.351Z,93.00
2023-01-23T05:18:04.040Z,93.11
2023-01-23T05:20:30.610Z,93.32
2023-01-23T05:22:58.618Z,93.04
2023-01-23T05:25:28.127Z,93.88
2023-01-23T05:27:54.921Z,93.04
2023-01-23T05:30:23.132Z,92.96
2023-01-23T05:32:50.009Z,92.81
2023-01-23T05:35:17.250Z,93.15
2023-01-23T05:37:43.947Z,93.27
2023-01-23T05:40:12.807Z,93.24
2023-01-23T05:42:41.808Z,93.75
2023-01-23T05:45:08.948Z,93.20
2023-01-23T05:47:35.864Z,93.08
2023-01-23T05:50:05.840Z,93.30
2023-01-23T05:52:32.399Z,93.48
2023-01-23T05:55:01.608Z,93.05
2023-01-23T05:57:28.273Z,93.98
2023-01-23T05:59:54.823Z,94.09
2023-01-23T06:02:21.420Z,93.25
2023-01-23T06:04:49.215Z,93.83
2023-01-23T06:07:17.392Z,93.59
2023-01-23T06:09:44.513Z,93.77
2023-01-23T06:12:11.943Z,93.95
2023-01-23T06:14:40.872Z,93.91
2023-01-23T06:17:08.017Z,94.04
2023-01-23T06:19:34.707Z,94.10
2023-01-23T06:22:01.251Z,93.72
2023-01-23T06:24:27.819Z,94.06
2023-01-23T06:26:56.778Z,94.82
2023-01-23T06:29:25.845Z,94.43
2023-01-23T06:31:52.485Z,94.41
2023-01-23T06:34:19.059Z,94.51
2023-01-23T06:36:46.330Z,94.44
2023-01-23T06:39:16.735Z,94.07
2023-01-23T06:41:43.744Z,94.91
2023-01-23T06:44:10.454Z,94.65
2023-01-23T06:46:37.496Z,94.58
2023-01-23T06:49:06.273Z,94.42
2023-01-23T06:51:33.964Z,94.47
2023-01-23T06:54:00.837Z,94.77
2023-01-23T06:56:32.736Z,94.75
2023-01-23T06:58:59.283Z,94.64
2023-01-23T07:01:29.150Z,94.33
2023-01-23T07:03:58.107Z,94.32
2023-01-23T07:06:25.943Z,94.58
2023-01-23T07:08:52.554Z,94.68
2023-01-23T07:11:19.659Z,94.76
2023-01-23T07:13:46.229Z,94.51
2023-01-23T07:16:12.920Z,94.82
2023-01-23T07:18:39.631Z,94.66
2023-01-23T07:21:08.815Z,94.79
2023-01-23T07:23:35.843Z,94.85
2023-01-23T07:26:04.541Z,94.55
2023-01-23T07:28:31.206Z,94.69
2023-01-23T07:30:59.129Z,94.96
2023-01-23T07:33:26.038Z,95.04
2023-01-23T07:35:52.654Z,94.93
2023-01-23T07:38:19.503Z,94.68
2023-01-23T07:40:46.162Z,94.71
2023-01-23T07:43:12.774Z,94.71
2023-01-23T07:45:41.810Z,94.93
2023-01-23T07:48:08.440Z,94.75
2023-01-23T07:50:35.789Z,94.50
2023-01-23T07:53:03.442Z,94.61
2023-01-23T07:55:30.337Z,94.52
2023-01-23T07:57:59.323Z,94.51
2023-01-23T08:00:29.339Z,94.67
2023-01-23T08:02:56.745Z,94.68
2023-01-23T08:05:23.321Z,94.61
2023-01-23T08:07:50.978Z,94.49
2023-01-23T08:10:21.475Z,94.76
2023-01-23T08:12:48.299Z,94.38
2023-01-23T08:15:15.044Z,94.44
2023-01-23T08:17:41.587Z,94.38
2023-01-23T08:20:09.309Z,94.59
2023-01-23T08:22:37.386Z,94.90
2023-01-23T08:25:04.459Z,94.58
2023-01-23T08:27:33.586Z,94.89
2023-01-23T08:30:00.212Z,94.67
2023-01-23T08:32:29.227Z,94.80
2023-01-23T08:34:55.817Z,95.12
2023-01-23T08:37:22.457Z,94.33
2023-01-23T08:39:48.980Z,94.70
2023-01-23T08:42:15.811Z,94.85
2023-01-23T08:44:42.390Z,94.43
2023-01-23T08:47:09.006Z,95.13
2023-01-23T08:49:35.595Z,94.07
2023-01-23T08:52:02.436Z,94.40
2023-01-23T08:54:31.259Z,94.76
2023-01-23T08:56:57.980Z,94.67
2023-01-23T08:59:24.639Z,94.25
2023-01-23T09:01:51.981Z,94.41
2023-01-23T09:04:18.844Z,93.97
2023-01-23T09:06:47.928Z,94.32
2023-01-23T09:09:18.196Z,94.15
2023-01-23T09:11:46.759Z,94.12
2023-01-23T09:14:15.791Z,94.01
2023-01-23T09:16:42.499Z,93.89
2023-01-23T09:19:10.451Z,93.50
2023-01-23T09:21:37.105Z,93.74
2023-01-23T09:24:06.111Z,94.19
2023-01-23T09:26:32.743Z,93.44
2023-01-23T09:29:01.841Z,93.78
2023-01-23T09:31:28.473Z,93.27
2023-01-23T09:33:55.097Z,94.00
2023-01-23T09:36:33.650Z,92.91
2023-01-23T09:39:08.198Z,93.66
2023-01-23T09:41:34.923Z,93.94
2023-01-23T09:44:28.995Z,92.97
2023-01-23T09:47:02.710Z,93.44
2023-01-23T09:49:56.077Z,93.62
2023-01-23T09:52:28.973Z,93.85
2023-01-23T09:55:32.204Z,93.11
2023-01-23T09:58:03.512Z,92.90
2023-01-23T10:00:32.805Z,93.21
2023-01-23T10:03:10.834Z,92.91
2023-01-23T10:05:42.788Z,93.18
2023-01-23T10:08:36.921Z,93.21
2023-01-23T10:11:13.821Z,92.59
2023-01-23T10:14:10.562Z,92.98
2023-01-23T10:17:03.074Z,93.10
2023-01-23T10:19:51.617Z,92.30
2023-01-23T10:22:36.288Z,92.24
2023-01-23T10:25:22.523Z,92.17
2023-01-23T10:27:51.215Z,92.17
2023-01-23T10:30:34.734Z,91.85
2023-01-23T10:33:08.416Z,91.80
2023-01-23T10:35:50.845Z,91.52
2023-01-23T10:38:48.162Z,91.45
2023-01-23T10:41:21.785Z,91.08
2023-01-23T10:43:54.174Z,91.46
2023-01-23T10:46:33.223Z,91.44
2023-01-23T10:49:01.592Z,91.59
2023-01-23T10:51:35.123Z,91.94
2023-01-23T10:54:33.093Z,91.77
2023-01-23T10:57:20.870Z,91.10
2023-01-23T11:00:08.470Z,91.44
2023-01-23T11:02:38.183Z,91.02
2023-01-23T11:05:53.038Z,91.53
2023-01-23T11:08:41.672Z,91.08
2023-01-23T11:11:20.167Z,91.27
2023-01-23T11:13:48.885Z,91.47
2023-01-23T11:16:23.221Z,91.25
2023-01-23T11:19:05.454Z,91.28
2023-01-23T11:21:37.562Z,90.62
2023-01-23T11:24:08.475Z,90.94
2023-01-23T11:26:36.754Z,90.66
2023-01-23T11:29:21.952Z,91.21
2023-01-23T11:32:10.829Z,90.92
2023-01-23T11:34:43.052Z,90.88
2023-01-23T11:37:20.275Z,90.05
2023-01-23T11:39:49.675Z,90.40
2023-01-23T11:42:19.685Z,90.60
2023-01-23T11:44:50.052Z,90.64
2023-01-23T11:47:28.504Z,91.11
2023-01-23T11:50:20.966Z,90.52
2023-01-23T11:52:56.497Z,90.70
2023-01-23T11:55:41.511Z,90.32
2023-01-23T11:58:17.453Z,90.49
2023-01-23T12:00:59.192Z,90.41
2023-01-23T12:03:28.721Z,90.28
2023-01-23T12:06:22.183Z,90.84
2023-01-23T12:09:20.365Z,90.70
2023-01-23T12:11:52.859Z,90.43
2023-01-23T12:14:32.635Z,90.16
2023-01-23T12:17:36.186Z,90.55
2023-01-23T12:20:26.069Z,90.78
2023-01-23T12:23:15.056Z,90.40
2023-01-23T12:25:45.564Z,90.17
2023-01-23T12:28:43.012Z,89.84
2023-01-23T12:31:16.704Z,89.90
2023-01-23T12:33:43.256Z,90.13
2023-01-23T12:36:31.877Z,90.54
2023-01-23T12:39:07.727Z,89.82
2023-01-23T12:41:42.668Z,89.66
2023-01-23T12:44:18.310Z,90.16
2023-01-23T12:47:00.524Z,89.63
2023-01-23T12:49:34.819Z,90.32
2023-01-23T12:52:11.546Z,89.88
2023-01-23T12:54:45.950Z,90.05
2023-01-23T12:57:13.272Z,90.26
2023-01-23T13:00:04.882Z,89.88
2023-01-23T13:02:40.183Z,89.33
2023-01-23T13:05:17.267Z,89.36
2023-01-23T13:08:20.354Z,89.84
2023-01-23T13:11:33.726Z,89.80
2023-01-23T13:14:01.668Z,89.38
2023-01-23T13:16:32.044Z,89.62
2023-01-23T13:19:19.199Z,89.62
2023-01-23T13:22:29.115Z,89.28
2023-01-23T13:25:19.170Z,89.51
2023-01-23T13:27:51.276Z,89.63
2023-01-23T13:30:27.005Z,89.50
2023-01-23T13:33:01.736Z,89.55
2023-01-23T13:35:43.435Z,89.55
2023-01-23T13:38:37.745Z,89.29
2023-01-23T13:41:14.588Z,89.64
2023-01-23T13:43:50.277Z,89.34
2023-01-23T13:46:23.125Z,89.56
2023-01-23T14:22:46.916Z,89.69
2023-01-23T14:25:23.190Z,89.67
2023-01-23T14:28:03.625Z,89.25
2023-01-23T14:30:31.710Z,89.53
2023-01-23T14:32:59.371Z,89.23
2023-01-23T14:35:31.628Z,89.34
2023-01-23T14:38:08.495Z,89.61
2023-01-23T14:40:50.235Z,89.21
2023-01-23T14:43:24.287Z,89.36
2023-01-23T14:46:02.043Z,89.66
2023-01-23T14:48:30.981Z,89.21
2023-01-23T14:51:32.173Z,89.96
2023-01-23T14:54:20.351Z,89.34
2023-01-23T14:56:49.628Z,89.16
2023-01-23T14:59:31.419Z,89.81
2023-01-23T15:02:13.055Z,88.91
2023-01-23T15:05:16.708Z,89.35
2023-01-23T15:07:50.795Z,89.47
2023-01-23T15:10:39.960Z,89.75
2023-01-23T15:13:11.852Z,90.23
2023-01-23T15:15:44.461Z,90.08
2023-01-23T15:18:27.637Z,90.35
2023-01-23T15:21:02.885Z,90.97
2023-01-23T15:23:39.660Z,91.10
2023-01-23T15:26:18.309Z,90.88
2023-01-23T15:28:53.812Z,91.40
2023-01-23T15:31:30.589Z,91.42
2023-01-23T15:34:10.518Z,90.71
2023-01-23T15:36:37.358Z,90.75
2023-01-23T15:39:04.034Z,91.21
2023-01-23T15:41:45.111Z,90.35
2023-01-23T15:44:18.276Z,90.69
2023-01-23T15:46:47.301Z,90.43
2023-01-23T15:49:24.799Z,90.59
2023-01-23T15:51:55.488Z,89.90
2023-01-23T15:54:33.027Z,89.91
2023-01-23T15:57:07.577Z,89.50
2023-01-23T15:59:35.481Z,89.91
2023-01-23T16:02:02.182Z,89.69
2023-01-23T16:04:28.774Z,90.05
2023-01-23T16:06:55.634Z,90.27
2023-01-23T16:09:34.055Z,89.82
2023-01-23T16:12:03.137Z,90.31
2023-01-23T16:14:29.733Z,90.13
2023-01-23T16:17:02.231Z,90.11
2023-01-23T16:19:31.506Z,89.94
2023-01-23T16:22:04.575Z,90.22
2023-01-23T16:24:39.261Z,90.08
2023-01-23T16:27:11.266Z,89.91
2023-01-23T16:29:37.852Z,89.71
2023-01-23T16:32:05.044Z,90.12
2023-01-23T16:34:31.693Z,89.74
2023-01-23T16:37:00.806Z,90.19
2023-01-23T16:39:31.216Z,90.05
2023-01-23T16:42:03.236Z,89.96
2023-01-23T16:44:29.820Z,89.56
2023-01-23T16:47:06.029Z,89.66
2023-01-23T16:49:46.856Z,89.33
2023-01-23T16:52:17.827Z,89.55
2023-01-23T16:54:53.233Z,88.78
2023-01-23T16:57:20.870Z,89.19
2023-01-23T16:59:50.057Z,88.68
2023-01-23T17:02:26.327Z,88.76
2023-01-23T17:04:52.980Z,88.92
2023-01-23T17:07:24.900Z,88.34
2023-01-23T17:09:54.068Z,87.97
2023-01-23T17:12:24.797Z,88.19
2023-01-23T17:14:52.759Z,87.86
2023-01-23T17:17:27.888Z,87.74
2023-01-23T17:19:57.626Z,87.70
2023-01-23T17:22:35.153Z,87.49
2023-01-23T17:25:01.757Z,87.93
2023-01-23T17:27:28.722Z,87.73
2023-01-23T17:29:55.456Z,87.51
2023-01-23T17:32:35.438Z,87.39
2023-01-23T17:35:04.617Z,87.81
2023-01-23T17:37:31.243Z,87.62
2023-01-23T17:40:00.334Z,87.26
2023-01-23T17:42:31.696Z,87.96
2023-01-23T17:44:58.262Z,87.48
2023-01-23T17:47:25.702Z,87.56
2023-01-23T17:49:54.700Z,87.33
2023-01-23T17:52:21.986Z,87.63
2023-01-23T17:54:49.704Z,86.99
2023-01-23T17:57:16.376Z,85.80
2023-01-23T17:59:43.050Z,86.30
2023-01-23T18:02:27.058Z,85.56
2023-01-23T18:04:58.281Z,82.14
2023-01-23T18:07:24.858Z,84.48
2023-01-23T18:09:52.660Z,84.55
2023-01-23T18:13:08.832Z,84.87
2023-01-23T18:16:02.508Z,85.16
2023-01-23T18:18:35.603Z,85.18
2023-01-23T18:21:07.175Z,85.26
2023-01-23T18:23:38.962Z,84.98
2023-01-23T18:26:42.596Z,85.08
2023-01-23T18:29:30.994Z,82.63
2023-01-23T18:32:33.144Z,83.96
2023-01-23T18:35:23.287Z,84.70
2023-01-23T18:37:56.132Z,84.14
2023-01-23T18:40:51.622Z,83.13
2023-01-23T18:43:43.659Z,81.10
2023-01-23T18:46:16.269Z,79.71
2023-01-23T18:48:44.201Z,78.61
2023-01-23T18:51:13.499Z,80.60
2023-01-23T18:53:46.925Z,81.12
2023-01-23T18:56:31.843Z,81.83
2023-01-23T18:59:17.106Z,81.30
2023-01-23T19:01:53.353Z,81.50
2023-01-23T19:04:55.721Z,80.45
2023-01-23T19:07:22.934Z,81.34
2023-01-23T19:09:49.807Z,81.66
2023-01-23T19:12:25.590Z,81.75
2023-01-23T19:15:04.101Z,81.53
2023-01-23T19:17:42.047Z,82.11
2023-01-23T19:20:33.980Z,82.44
2023-01-23T19:23:21.791Z,82.62
2023-01-23T19:25:48.593Z,81.56
2023-01-23T19:28:22.463Z,82.37
2023-01-23T19:30:49.374Z,82.17
2023-01-23T19:33:18.189Z,82.44
2023-01-23T19:35:46.474Z,82.57
2023-01-23T19:38:15.076Z,82.24
2023-01-23T19:40:48.752Z,82.33
2023-01-23T19:43:18.919Z,81.97
2023-01-23T19:45:46.314Z,82.16
2023-01-23T19:48:13.306Z,82.12
2023-01-23T19:50:40.562Z,82.28
2023-01-23T19:53:07.272Z,82.47
2023-01-23T19:55:36.443Z,82.77
2023-01-23T19:58:03.042Z,83.01
2023-01-23T20:00:32.167Z,82.64
2023-01-23T20:02:59.350Z,82.88
2023-01-23T20:05:28.814Z,82.72
2023-01-23T20:07:58.760Z,82.72
2023-01-23T20:10:25.441Z,82.45
2023-01-23T20:12:52.444Z,82.53
2023-01-23T20:15:25.241Z,81.39
2023-01-23T20:17:52.788Z,80.69
2023-01-23T20:20:20.685Z,81.22
2023-01-23T20:22:49.806Z,81.58
2023-01-23T20:25:17.178Z,81.60
2023-01-23T20:27:44.760Z,80.12
2023-01-23T20:30:15.829Z,81.09
2023-01-23T20:32:45.148Z,81.23
2023-01-23T20:35:12.480Z,81.68
2023-01-23T20:37:41.649Z,81.71
2023-01-23T20:40:09.187Z,80.62
2023-01-23T20:42:39.354Z,81.58
2023-01-23T20:45:07.009Z,80.99
2023-01-23T20:47:36.242Z,80.69
2023-01-23T20:50:03.398Z,81.30
2023-01-23T20:52:48.669Z,81.11
2023-01-23T20:55:15.517Z,81.18
2023-01-23T20:58:08.294Z,81.75
2023-01-23T21:00:34.846Z,81.48
2023-01-23T21:03:01.521Z,81.89
2023-01-23T21:05:28.283Z,82.47
2023-01-23T21:07:54.823Z,82.09
2023-01-23T21:10:21.475Z,82.28
2023-01-23T21:12:48.026Z,82.42
2023-01-23T21:15:17.266Z,82.71
2023-01-23T21:17:43.892Z,81.62
2023-01-23T21:20:10.976Z,82.00
2023-01-23T21:22:39.833Z,81.52
2023-01-23T21:25:08.937Z,82.21
2023-01-23T21:27:35.569Z,82.09
2023-01-23T21:30:02.202Z,82.49
2023-01-23T21:32:28.739Z,82.91
2023-01-23T21:34:57.588Z,81.71
2023-01-23T21:37:24.503Z,82.37
2023-01-23T21:39:51.457Z,82.17
2023-01-23T21:42:18.085Z,81.67
2023-01-23T21:44:47.002Z,81.68
2023-01-23T21:47:13.608Z,81.86
2023-01-23T21:49:40.217Z,81.71
2023-01-23T21:52:06.971Z,82.34
2023-01-23T21:54:33.532Z,82.34
2023-01-23T21:57:00.106Z,82.47
2023-01-23T21:59:29.179Z,82.18
2023-01-23T22:01:55.795Z,81.92
2023-01-23T22:04:22.587Z,81.87
2023-01-23T22:06:55.921Z,82.23
2023-01-23T22:09:27.300Z,82.54
2023-01-23T22:11:54.852Z,83.00
2023-01-23T22:14:21.480Z,82.81
2023-01-23T22:16:51.285Z,82.11
2023-01-23T22:19:24.884Z,82.15
2023-01-23T22:21:53.474Z,81.78
2023-01-23T22:24:20.121Z,81.75
2023-01-23T22:26:46.859Z,82.26
2023-01-23T22:29:15.642Z,81.84
2023-01-23T22:31:42.723Z,82.14
2023-01-23T22:34:10.386Z,82.16
2023-01-23T22:36:37.078Z,82.11
2023-01-23T22:39:03.963Z,81.94
2023-01-23T22:41:30.560Z,82.88
2023-01-23T22:44:00.236Z,82.40
2023-01-23T22:46:29.620Z,82.18
2023-01-23T22:48:56.306Z,82.16
2023-01-23T22:51:25.580Z,82.17
2023-01-23T22:53:56.142Z,82.38
2023-01-23T22:56:24.382Z,82.06
2023-01-23T22:58:54.733Z,82.13
2023-01-23T23:01:24.304Z,82.10
2023-01-23T23:03:51.420Z,82.61
2023-01-23T23:06:18.612Z,81.85
2023-01-23T23:08:47.656Z,81.67
2023-01-23T23:11:28.684Z,82.15
2023-01-23T23:13:58.069Z,82.26
2023-01-23T23:16:28.380Z,81.81
2023-01-23T23:18:57.308Z,82.10
2023-01-23T23:21:28.345Z,82.44
2023-01-23T23:23:57.306Z,81.91
2023-01-23T23:26:26.796Z,82.26
2023-01-23T23:28:56.180Z,82.03
2023-01-23T23:31:25.563Z,81.75
2023-01-23T23:33:53.186Z,82.46
2023-01-23T23:36:19.893Z,82.35
2023-01-23T23:38:48.883Z,82.36
2023-01-23T23:41:17.262Z,82.30
2023-01-23T23:43:44.015Z,82.45
2023-01-23T23:46:14.729Z,81.94
2023-01-23T23:48:46.074Z,81.57
2023-01-23T23:51:14.782Z,81.76
2023-01-23T23:53:46.216Z,81.54
2023-01-23T23:56:20.671Z,81.56
2023-01-23T23:58:47.506Z,81.66
